Weather observations for the past three days for
Williamsburg-Whitley County Airport
Imperial (Metric)
Date Time (edt) Wind (mph) Vis. (mi.) Weather Sky Cond. Temperature (ºF) Relative Humidity Wind Chill (°F) Heat Index (°F) Pressure Precipitation (in)
Air Dwpt 6 hour altimeter (in) sea level (mb) 1 hr 3 hr 6 hr
Max. Min.
09 07:55 NW 3 9.00 Overcast OVC130 47.5 45.9 51.1 45.3 94% 29.87 0.0
09 07:35 Calm 9.00 Overcast OVC130 48.4 46.6 94% 29.86 0.0
09 07:15 Calm 10.00 Mostly Cloudy BKN140 48.2 45.1 89% 29.86 0.0
09 06:55 SE 5 10.00 Overcast BKN140 OVC160 48.4 45 88% 47 29.86 0.0
09 06:35 Calm 10.00 Overcast OVC150 47.1 45.3 94% 29.86 0.0
09 06:15 Calm 10.00 Overcast OVC150 47.8 45 90% 29.87 0.0
09 05:55 Calm 10.00 Overcast OVC150 45.9 44.8 96% 29.88 0.0
09 05:35 Calm 9.00 Mostly Cloudy BKN140 46 45 96% 29.87 0.0
09 05:15 Calm 10.00 Overcast OVC150 48.2 45.5 90% 29.87 0.0
09 04:55 Calm 10.00 Overcast BKN160 OVC180 47.5 43.9 87% 29.87 0.0
09 04:35 Calm 10.00 Overcast OVC170 45.5 43.9 94% 29.87 0.0
09 04:15 Calm 10.00 Overcast OVC180 48 43.3 84% 29.86 0.0
09 03:55 Calm 10.00 Partly Cloudy SCT180 SCT210 47.8 43.3 84% 29.86 0.0
09 03:35 Calm 10.00 Fair CLR 46.2 43.3 90% 29.86 0.0
09 03:15 Calm 10.00 Fair CLR 49.6 42.6 77% 29.86 0.0
09 02:55 Calm 10.00 A Few Clouds FEW260 50.4 42.6 75% 29.87 0.0
09 02:35 Calm 10.00 Fair CLR 49.1 43.2 80% 29.87 0.0
09 02:15 Calm 10.00 Fair CLR 46.8 43.5 89% 29.88 0.0
09 01:55 Calm 10.00 Fair CLR 46.9 43.5 67.6 46.4 88% 29.88 0.0
09 01:35 Calm 10.00 Fair CLR 51.8 42.4 71% 29.88 0.0
09 01:15 SE 3 10.00 Fair CLR 51.6 42.8 72% 29.88 0.0
09 00:55 SE 5 10.00 Fair CLR 52 42.6 71% 29.89 0.0
09 00:35 Calm 10.00 Fair CLR 50 43.7 79% 29.89 0.0
09 00:15 Calm 10.00 Fair CLR 50.2 44.2 80% 29.9 0.0
08 23:55 Calm 10.00 Fair CLR 51.4 44.1 76% 29.89 0.0
08 23:35 Calm 10.00 Fair CLR 52.2 44.1 74% 29.9 0.0
08 23:15 Calm 10.00 A Few Clouds FEW210 51.6 44.1 76% 29.9 0.0
08 22:55 SW 3 10.00 Fair CLR 51.8 44.6 77% 29.9 0.0
08 22:35 S 3 10.00 Fair CLR 55.2 42.6 63% 29.9 0.0
08 22:15 Calm 10.00 Fair CLR 52.9 45 75% 29.9 0.0
08 21:55 SE 5 10.00 Fair CLR 59.2 41.2 51% 29.9 0.0
08 21:35 S 5 10.00 Fair CLR 59.5 41.2 51% 29.9 0.0
08 21:15 SE 6 10.00 Fair CLR 60.8 40.1 47% 29.9 0.0
08 20:55 SE 5 10.00 Fair CLR 63 38.5 41% 29.9 0.0
08 20:35 S 3 10.00 Fair CLR 65.1 37.2 36% 29.9 0.0
08 20:15 SW 3 10.00 Fair CLR 66.4 35.8 32% 29.9 0.0
08 19:55 SW 3 10.00 Fair CLR 67.5 37.6 72 67.1 33% 29.89 0.0
08 19:35 SW 5 10.00 Fair CLR 68.4 37 32% 29.89 0.0
08 19:15 Vrbl 5 9.00 Fair CLR 69.3 37.6 31% 29.89 0.0
08 18:55 SW 7 10.00 Fair CLR 70.2 37.4 30% 29.9 0.0
08 18:35 Vrbl 7 10.00 Fair CLR 71.2 37.6 29% 29.91 0.0
08 18:15 S 8 10.00 Fair CLR 71.6 37.6 29% 29.91 0.0
08 17:55 Vrbl 5 10.00 A Few Clouds FEW270 71.6 36 27% 29.91 0.0
08 17:35 S 6 10.00 A Few Clouds FEW270 71.2 35.8 27% 29.9 0.0
08 17:15 Calm 10.00 Fair CLR 71.2 33.6 25% 29.91 0.0
08 16:55 Vrbl 3 10.00 A Few Clouds FEW270 70.3 32.4 25% 29.91 0.0
08 16:35 SE 8 10.00 Fair CLR 70.5 33.6 26% 29.91 0.0
08 16:15 S 9 10.00 Fair CLR 70.9 34.3 26% 29.92 0.0
08 15:55 SE 8 10.00 Fair CLR 69.6 33.6 27% 29.94 0.0
08 15:35 Vrbl 7 10.00 Fair CLR 69.6 35.2 28% 29.96 0.0
08 15:15 SE 6 10.00 Fair CLR 69.6 36 29% 29.96 0.0
08 14:55 SE 9 10.00 Fair CLR 68.7 34.9 29% 29.98 0.0
08 14:35 SE 9 10.00 Fair CLR 68.7 35.8 30% 29.98 0.0
08 14:15 S 7 10.00 Fair CLR 67.8 35.2 30% 29.99 0.0
08 13:55 SE 8 10.00 Fair CLR 67.3 35.8 67.3 40.6 31% 30.01 0.0
08 13:35 SE 9 10.00 Fair CLR 66.7 34.7 31% 30.01 0.0
08 13:15 SE 8 10.00 Fair CLR 66.4 35.6 32% 30.02 0.0
08 12:55 E 7 10.00 Fair CLR 64.9 34.5 32% 30.04 0.0
08 12:35 E 6 10.00 Fair CLR 64.9 37 36% 30.04 0.0
08 12:15 SE 7 10.00 Fair CLR 64 36.9 37% 30.06 0.0
08 11:55 S 8 9.00 Fair CLR 62.8 39.7 43% 30.07 0.0
08 11:35 W 3 9.00 Fair CLR 61.2 38.1 43% 30.07 0.0
08 11:15 SW 3 10.00 Fair CLR 62.2 39.9 44% 30.08 0.0
08 10:55 Vrbl 5 9.00 Fair CLR 60.3 42.4 52% 30.08 0.0
08 10:35 Calm 10.00 Fair CLR 56.8 44.2 63% 30.08 0.0
08 10:15 Calm 10.00 Fair CLR 56.3 44.6 65% 30.08 0.0
08 09:55 Calm 10.00 Fair CLR 52.2 44.6 76% 30.08 0.0
08 09:35 Calm 10.00 Fair CLR 48.6 44.6 86% 30.08 0.0
08 09:15 Calm 10.00 Fair CLR 47.3 47.3 100% 30.07 0.0
08 08:55 SE 3 10.00 Fair CLR 43.7 43.7 100% 30.08 0.0
08 08:35 SE 3 10.00 Partly Cloudy SCT002 42.6 42.6 100% 30.07 0.0
08 08:15 Calm 7.00 Overcast OVC002 41.5 41.5 100% 30.07 0.0
08 07:55 Calm 0.15 Fog VV002 40.3 40.3 40.3 36.9 100% 30.06 0.0
08 07:35 Calm 0.15 Fog VV002 39.9 39.9 100% 30.06 0.0
08 07:15 Calm 0.15 Fog VV002 39.4 39.4 100% 30.06 0.0
08 06:55 Calm 0.25 Fog VV002 38.5 38.5 100% 30.05 0.0
08 06:35 Calm 0.25 Fog VV002 38.3 38.3 100% 30.04 0.0
08 06:15 Calm 0.25 Fog VV002 38.3 38.3 100% 30.03 0.0
08 05:55 Calm 0.25 Fog VV002 38.1 38.1 100% 30.03 0.0
08 05:35 Calm 0.25 Fog VV002 37.9 37.9 100% 30.03 0.0
08 05:15 Calm 0.25 Fog VV002 38.3 38.3 100% 30.03 0.0
08 04:55 S 3 0.50 Fog VV001 37.8 37.8 100% 30.03 0.0
08 04:35 Calm 5.00 Fog/Mist CLR 37 37 100% 30.03 0.0
08 04:15 Calm 4.00 Fog/Mist CLR 37.2 37.2 100% 30.03 0.0
08 03:55 Calm 0.25 Fog VV001 37.9 37.9 100% 30.03 0.0
08 03:35 Calm 0.25 Fog VV001 38.5 38.5 100% 30.03 0.0
08 03:15 Calm 0.25 Fog VV001 39.2 39.2 100% 30.03 0.0
08 02:55 S 3 0.25 Fog VV001 39.6 39.6 100% 30.03 0.0
08 02:35 Calm 8.00 A Few Clouds FEW360 39.4 39.4 100% 30.03 0.0
08 02:15 Calm 10.00 A Few Clouds FEW360 40.1 40.1 100% 30.03 0.0
08 01:55 Calm 7.00 Fair CLR 41 40.6 59 41 99% 30.03 0.0
08 01:35 Calm 10.00 Fair CLR 41.9 41.9 100% 30.04 0.0
08 01:15 Calm 10.00 A Few Clouds FEW360 42.3 41.9 99% 30.04 0.0
08 00:55 Calm 10.00 Fair CLR 43 42.8 99% 30.04 0.0
08 00:35 Calm 10.00 Fair CLR 41.9 41.5 99% 30.04 0.0
08 00:15 Calm 10.00 Fair CLR 44.4 42.8 94% 30.03 0.0
07 23:55 S 3 10.00 Fair CLR 43.7 42.6 96% 30.02 0.0
07 23:35 Calm 10.00 Fair CLR 44.6 42.4 92% 30.02 0.0
07 23:15 Calm 10.00 Fair CLR 47.5 42.4 83% 30.02 0.0
07 22:55 Calm 10.00 Fair CLR 47.1 42.6 84% 30.02 0.0
07 22:35 Calm 10.00 Fair CLR 48 42.1 80% 30.02 0.0
07 22:15 Calm 10.00 Fair CLR 47.7 43 84% 30.01 0.0
07 21:55 Calm 10.00 Fair CLR 49.1 42.8 79% 30 0.0
07 21:35 NW 3 10.00 Fair CLR 50.5 42.3 73% 29.99 0.0
07 21:15 NW 3 10.00 Fair CLR 53.1 40.5 62% 29.98 0.0
07 20:55 NW 3 10.00 Fair CLR 55.4 38.5 53% 29.97 0.0
07 20:35 NW 3 10.00 Fair CLR 56.3 38.1 51% 29.97 0.0
07 20:15 NW 5 10.00 Fair CLR 57.6 37.9 48% 29.96 0.0
07 19:55 NW 5 10.00 Fair CLR 60.1 37 64.6 59.5 42% 29.96 0.0
07 19:35 NW 5 10.00 Fair CLR 61 37.8 42% 29.95 0.0
07 19:15 NW 6 10.00 Partly Cloudy SCT060 61.7 38.1 42% 29.95 0.0
07 18:55 Calm 10.00 A Few Clouds FEW060 62.4 38.1 41% 29.96 0.0
07 18:35 NW 6 10.00 A Few Clouds FEW060 61 38.8 44% 29.96 0.0
07 18:15 W 5 10.00 Partly Cloudy SCT060 63.1 39 41% 29.95 0.0
07 17:55 N 7 10.00 A Few Clouds FEW060 63 38.8 41% 29.95 0.0
07 17:35 Vrbl 6 10.00 Fair CLR 63.7 39.7 42% 29.94 0.0
07 17:15 NW 6 10.00 A Few Clouds FEW060 61.3 39.6 45% 29.94 0.0
07 16:15 NW 5 10.00 Partly Cloudy SCT055 62.6 41.9 47% 29.94 0.0
07 15:55 NW 10 10.00 A Few Clouds FEW055 61.5 41.2 47% 29.94 0.0
07 15:35 Vrbl 6 10.00 A Few Clouds FEW055 61.9 41.2 47% 29.94 0.0
07 15:15 W 7 10.00 A Few Clouds FEW048 62.8 41.4 46% 29.94 0.0
07 14:55 Vrbl 6 10.00 Partly Cloudy SCT048 61 41.9 50% 29.95 0.0
07 14:35 N 7 10.00 Partly Cloudy SCT045 62.1 42.1 48% 29.96 0.0
07 14:15 NW 12 G 16 10.00 Mostly Cloudy BKN044 60.6 41.9 50% 29.96 0.0
07 13:55 N 10 10.00 Mostly Cloudy BKN044 60.1 42.1 61.2 50.7 52% 29.96 0.0
07 13:35 N 8 10.00 Mostly Cloudy BKN043 58.5 42.8 56% 29.97 0.0
07 13:15 Vrbl 6 10.00 Mostly Cloudy BKN044 60.6 43 52% 29.97 0.0
07 12:55 Vrbl 6 10.00 Mostly Cloudy BKN041 59.4 43.7 56% 29.98 0.0
07 12:35 N 7 10.00 Mostly Cloudy BKN041 59 43.9 57% 29.98 0.0
07 12:15 N 6 10.00 Mostly Cloudy BKN038 57.7 43.9 60% 29.98 0.0
07 11:55 N 8 10.00 Overcast OVC038 57.7 43.3 59% 29.97 0.0
07 11:35 N 10 10.00 Mostly Cloudy BKN036 56.8 43.5 61% 29.98 0.0
07 11:15 NE 9 10.00 Partly Cloudy SCT035 57.9 43.2 58% 29.97 0.0
07 10:55 N 7 10.00 Partly Cloudy SCT029 56.7 44.8 65% 29.97 0.0
07 10:35 N 8 10.00 Mostly Cloudy BKN029 BKN330 55.2 44.8 68% 29.97 0.0
07 10:15 NE 9 10.00 Partly Cloudy FEW029 SCT330 55.6 44.1 65% 29.97 0.0
07 09:55 N 7 G 17 10.00 Fair CLR 55.2 46.9 74% 29.97 0.0
07 09:35 N 6 10.00 Partly Cloudy SCT047 53.6 48 82% 29.97 0.0
07 09:15 N 3 10.00 Overcast OVC046 52.5 48.7 87% 29.97 0.0
07 08:55 N 5 10.00 Overcast OVC045 51.6 49.3 92% 29.98 0.0
07 08:35 N 5 10.00 Overcast OVC044 51.4 48.9 91% 29.97 0.0
07 08:15 N 5 10.00 Overcast OVC042 51.1 48.7 92% 29.97 0.0
07 07:55 N 6 10.00 Overcast OVC038 50.7 48.6 53.4 50.7 92% 29.96 0.0
07 07:35 N 6 10.00 Overcast OVC038 50.7 48.7 93% 29.95 0.0
07 07:15 N 6 10.00 Overcast OVC037 50.7 49.1 94% 29.95 0.0
07 06:55 Vrbl 3 10.00 Overcast OVC035 50.9 49.3 94% 29.95 0.0
07 06:35 N 5 10.00 Overcast OVC033 50.9 49.5 95% 29.95 0.0
07 06:15 Vrbl 3 10.00 Overcast OVC032 50.9 49.3 94% 29.94 0.0
07 05:55 N 7 10.00 Overcast OVC029 51.4 49.3 92% 29.93 0.0
07 05:35 N 5 10.00 Overcast OVC027 51.6 49.6 93% 29.94 0.0
07 05:15 N 5 10.00 Overcast OVC027 51.8 50.9 97% 29.94 0.0
07 04:55 N 3 9.00 Overcast FEW011 OVC025 52.3 51.8 98% 29.94 0.0
07 04:35 N 5 8.00 Light Rain SCT011 BKN017 OVC024 52.5 52 98% 29.93 0.0
07 04:15 NW 3 7.00 Light Rain BKN011 OVC017 52.9 52.7 99% 29.94 0.0
07 03:55 Calm 8.00 Overcast BKN013 OVC028 52.9 52.9 100% 29.94 0.0
07 03:35 Calm 7.00 Overcast FEW014 OVC029 52.9 52.9 100% 29.94 0.0
07 03:15 N 3 9.00 Overcast OVC029 52.9 52.9 100% 29.93 0.0
07 02:55 Calm 8.00 Overcast OVC029 53.1 53.1 100% 29.94 0.0
07 02:35 NW 3 5.00 Fog/Mist OVC029 53.2 53.2 100% 29.94 0.0
07 02:15 Calm 7.00 Overcast SCT005 OVC028 53.2 53.2 100% 29.96 0.0
07 01:55 Calm 9.00 Overcast BKN008 BKN014 OVC020 53.4 53.4 54.3 53.2 100% 29.97 0.0 0.01 0.09
07 01:35 Calm 9.00 Overcast FEW005 BKN009 BKN013 OVC019 53.4 53.4 100% 29.96 0.0 0.01
07 01:15 Calm 8.00 Overcast BKN005 BKN012 OVC029 53.4 53.4 100% 29.96 0.0 0.01
07 00:55 Calm 9.00 Overcast BKN030 OVC035 53.2 53.2 100% 29.95 0.0
07 00:35 Calm 7.00 Overcast OVC031 53.4 53.4 100% 29.97 0.0
07 00:15 NW 5 7.00 Overcast OVC031 53.2 53.2 100% 29.96 0.0
06 23:55 Calm 8.00 Light Rain SCT025 OVC030 53.4 53.4 100% 29.95 0.0 0.02
06 23:35 Calm 6.00 Light Rain Fog/Mist OVC026 53.4 53.4 100% 29.97 0.0 0.02
06 23:15 Calm 4.00 Light Rain Fog/Mist FEW003 OVC028 53.4 53.4 100% 29.96 0.0 0.02
06 22:55 Calm 8.00 Overcast OVC028 53.6 53.6 100% 29.98 0.0 0.01 0.06
06 22:35 Calm 8.00 Overcast FEW004 OVC026 53.6 53.6 100% 29.98 0.0 0.01
06 22:15 NW 3 6.00 Fog/Mist FEW005 BKN024 OVC045 53.6 53.6 100% 29.97 0.0 0.01
06 21:55 SE 3 6.00 Light Rain Fog/Mist BKN028 BKN065 BKN080 OVC090 53.8 53.8 100% 29.92 0.0 0.02
06 21:35 E 5 9.00 Overcast OVC024 54 54 100% 29.92 0.0 0.01
06 21:15 NE 3 6.00 Light Rain Fog/Mist BKN023 53.8 53.8 100% 29.94 0.0 0.01
06 20:55 Calm 5.00 Light Rain Fog/Mist FEW021 SCT027 BKN055 BKN080 54 53.6 99% 29.96 0.0 0.03
06 20:35 Calm 6.00 Light Rain Fog/Mist BKN020 OVC029 54.1 53.8 99% 29.96 0.0 0.02
06 20:15 Calm 6.00 Light Rain Fog/Mist OVC016 54.1 53.8 99% 29.97 0.0 0.01
06 19:55 NW 5 9.00 Overcast OVC015 54.3 53.8 58.1 54.3 98% 29.95 0.0
06 19:35 NW 5 9.00 Overcast OVC014 54.5 53.8 97% 29.95 0.0
06 19:15 NW 6 9.00 Overcast BKN013 OVC026 54.5 54.3 99% 29.95 0.0
06 18:55 Calm 9.00 Overcast BKN010 OVC027 55 54 96% 29.92 0.0
06 18:35 Calm 4.00 Light Rain Fog/Mist OVC008 54.7 53.6 96% 29.94 0.0
06 18:15 NW 5 8.00 Overcast OVC008 55.2 53.8 95% 29.94 0.0
06 17:55 N 3 10.00 Overcast OVC007 55.2 53.8 95% 29.93 0.0
06 17:35 NW 6 10.00 Overcast OVC007 55.2 54 96% 29.92 0.0
06 17:15 NW 7 10.00 Overcast OVC006 55.6 54.3 96% 29.92 0.0
06 16:55 N 7 10.00 Overcast OVC006 56.3 55 96% 29.9 0.0
06 16:35 Vrbl 6 10.00 Overcast OVC005 56.5 55 95% 29.91 0.0
06 16:15 Vrbl 5 10.00 Overcast OVC005 55.8 55 97% 29.92 0.0
06 15:55 NW 8 10.00 Overcast BKN003 OVC007 56.1 55.2 97% 29.93 0.0
06 15:35 NW 6 7.00 Overcast OVC003 56.3 55.9 99% 29.92 0.0
06 15:15 N 7 5.00 Fog/Mist OVC003 56.7 56.7 100% 29.91 0.0
06 14:55 N 7 4.00 Fog/Mist OVC003 56.8 56.8 100% 29.91 0.0
06 14:35 Vrbl 6 7.00 Overcast OVC003 57.7 57.4 99% 29.91 0.0
06 14:15 NW 5 8.00 Overcast OVC003 57.6 57.6 100% 29.91 0.0
06 13:55 NW 5 5.00 Fog/Mist OVC002 58.5 58.5 63 58.5 100% 29.9 0.0 0.42
06 13:35 NW 7 3.00 Fog/Mist OVC002 59 59 100% 29.9 0.0
06 13:15 NW 7 2.50 Fog/Mist OVC002 59.9 59.9 100% 29.9 0.0
06 12:55 NW 8 9.00 Overcast BKN003 OVC007 61 60.6 99% 29.89 0.0
06 12:35 Vrbl 3 9.00 Overcast OVC007 62.4 61.5 97% 29.9 0.0
06 12:15 NW 6 9.00 Overcast BKN007 OVC013 62.6 61.7 97% 29.89 0.0
06 11:55 Vrbl 3 9.00 Overcast FEW007 OVC014 62.6 61.7 97% 29.88 0.0 0.01
06 11:35 Calm 9.00 Overcast OVC014 62.4 62.1 99% 29.87 0.0 0.01
06 11:15 Calm 6.00 Fog/Mist OVC014 62.2 62.2 100% 29.87 0.0 0.01
06 10:55 Calm 5.00 Light Rain Fog/Mist BKN018 OVC024 61.9 61.7 99% 29.87 0.0 0.06 0.41
06 10:35 SW 3 6.00 Light Rain Fog/Mist FEW005 BKN022 OVC029 61.9 61.9 100% 29.88 0.0 0.06
06 10:15 Vrbl 3 5.00 Light Rain Fog/Mist FEW004 SCT021 OVC030 61.9 61.9 100% 29.87 0.0 0.05
06 09:55 NW 7 0.75 Light Rain Fog/Mist FEW006 OVC020 61.5 61.5 100% 29.86 0.0 0.35
06 09:35 Calm 0.75 Rain Fog/Mist FEW005 BKN018 OVC024 61.7 61.2 98% 29.85 0.0 0.13
06 09:15 Calm 4.00 Light Rain Fog/Mist BKN021 OVC037 61.5 60.8 98% 29.84 0.0 0.01
06 08:55 S 5 10.00 Overcast OVC018 61.9 60.8 96% 29.83 0.0
06 08:35 Calm 8.00 Overcast OVC018 61.5 60.8 98% 29.84 0.0
Date Time (edt) Wind (mph) Vis. (mi.) Weather Sky Cond. Air Dwpt Max. Min. Relative Humidity Wind Chill (°F) Heat Index (°F) altimeter (in) sea level (mb) 1 hr 3 hr 6 hr
6 hour
Temperature (ºF) Pressure Precipitation (in)